createdAt,value
2022-12-03T00:01:02.756Z,100602.00
2022-12-03T00:06:04.569Z,100605.44
2022-12-03T00:11:08.141Z,100605.84
2022-12-03T00:16:09.902Z,100600.66
2022-12-03T00:21:11.647Z,100606.22
2022-12-03T00:26:13.262Z,100603.72
2022-12-03T00:31:14.919Z,100601.34
2022-12-03T00:36:16.966Z,100593.47
2022-12-03T00:41:18.637Z,100594.75
2022-12-03T00:46:21.737Z,100593.84
2022-12-03T00:51:23.852Z,100594.63
2022-12-03T00:56:25.752Z,100589.50
2022-12-03T01:01:27.758Z,100598.38
2022-12-03T01:06:30.031Z,100591.38
2022-12-03T01:11:37.660Z,100589.28
2022-12-03T01:16:40.479Z,100585.56
2022-12-03T01:21:49.983Z,100590.13
2022-12-03T01:26:52.290Z,100587.06
2022-12-03T01:32:12.542Z,100581.06
2022-12-03T01:37:14.434Z,100584.88
2022-12-03T01:42:29.519Z,100585.84
2022-12-03T01:47:34.789Z,100581.94
2022-12-03T01:52:39.272Z,100577.53
2022-12-03T01:57:45.989Z,100573.19
2022-12-03T02:02:55.060Z,100576.59
2022-12-03T02:07:57.294Z,100572.53
2022-12-03T02:13:08.598Z,100568.16
2022-12-03T02:18:10.802Z,100569.69
2022-12-03T02:23:28.529Z,100568.22
2022-12-03T02:28:30.382Z,100571.63
2022-12-03T02:33:32.540Z,100565.97
2022-12-03T02:38:35.814Z,100558.19
2022-12-03T02:43:38.174Z,100558.50
2022-12-03T02:48:41.869Z,100563.25
2022-12-03T02:53:47.565Z,100563.19
2022-12-03T02:58:54.926Z,100563.78
2022-12-03T03:03:57.267Z,100568.63
2022-12-03T03:09:02.888Z,100563.56
2022-12-03T03:14:04.780Z,100569.56
2022-12-03T03:19:06.509Z,100570.25
2022-12-03T03:24:08.254Z,100565.75
2022-12-03T03:29:10.114Z,100568.59
2022-12-03T03:34:12.731Z,100563.94
2022-12-03T03:39:14.539Z,100556.09
2022-12-03T03:44:16.240Z,100559.34
2022-12-03T03:49:17.912Z,100557.53
2022-12-03T03:54:19.702Z,100556.19
2022-12-03T03:59:21.809Z,100553.31
2022-12-03T04:04:26.777Z,100559.34
2022-12-03T04:09:28.504Z,100547.47
2022-12-03T04:14:31.990Z,100550.97
2022-12-03T04:19:33.668Z,100548.34
2022-12-03T04:24:35.319Z,100549.28
2022-12-03T04:29:37.024Z,100534.59
2022-12-03T04:34:57.583Z,100540.81
2022-12-03T04:39:59.380Z,100539.72
2022-12-03T04:45:01.068Z,100550.88
2022-12-03T04:50:02.705Z,100544.22
2022-12-03T04:55:04.627Z,100543.00
2022-12-03T05:00:06.965Z,100534.56
2022-12-03T05:05:09.247Z,100532.00
2022-12-03T05:10:12.108Z,100533.81
2022-12-03T05:15:13.809Z,100526.50
2022-12-03T05:20:34.654Z,100525.56
2022-12-03T05:25:36.366Z,100523.31
2022-12-03T05:30:38.167Z,100530.84
2022-12-03T05:35:39.918Z,100520.50
2022-12-03T05:40:41.629Z,100516.75
2022-12-03T05:45:44.437Z,100516.50
2022-12-03T05:50:46.940Z,100522.53
2022-12-03T05:55:48.602Z,100518.72
2022-12-03T06:00:50.260Z,100519.84
2022-12-03T06:05:51.845Z,100515.81
2022-12-03T06:10:53.510Z,100518.38
2022-12-03T06:15:55.183Z,100512.00
2022-12-03T06:20:56.823Z,100516.41
2022-12-03T06:25:58.452Z,100522.53
2022-12-03T06:31:00.173Z,100517.06
2022-12-03T06:36:01.895Z,100514.13
2022-12-03T06:41:03.609Z,100516.44
2022-12-03T06:46:05.566Z,100520.03
2022-12-03T06:51:07.312Z,100515.31
2022-12-03T06:56:09.152Z,100515.56
2022-12-03T07:01:10.867Z,100517.47
2022-12-03T07:06:13.095Z,100524.25
2022-12-03T07:11:33.097Z,100522.13
2022-12-03T07:16:35.943Z,100515.16
2022-12-03T07:21:37.981Z,100521.78
2022-12-03T07:26:40.054Z,100519.28
2022-12-03T07:32:06.599Z,100519.38
2022-12-03T07:37:08.360Z,100517.75
2022-12-03T07:42:10.092Z,100522.03
2022-12-03T07:47:11.799Z,100521.06
2022-12-03T07:52:13.609Z,100526.16
2022-12-03T07:57:15.399Z,100521.97
2022-12-03T08:02:21.396Z,100519.91
2022-12-03T08:07:24.048Z,100517.09
2022-12-03T08:12:42.995Z,100517.13
2022-12-03T08:17:46.911Z,100512.03
2022-12-03T08:22:51.348Z,100512.72
2022-12-03T08:27:57.385Z,100499.88
2022-12-03T08:32:59.580Z,100501.00
2022-12-03T08:38:12.931Z,100497.81
2022-12-03T08:43:27.599Z,100497.75
2022-12-03T08:48:40.700Z,100504.63
2022-12-03T08:54:11.983Z,100507.03
2022-12-03T08:59:30.160Z,100512.19
2022-12-03T09:04:44.288Z,100514.72
2022-12-03T09:09:45.882Z,100522.88
2022-12-03T09:14:47.553Z,100506.75
2022-12-03T09:19:51.311Z,100502.91
2022-12-03T09:24:53.193Z,100511.47
2022-12-03T09:29:55.009Z,100506.59
2022-12-03T09:34:56.889Z,100504.09
2022-12-03T09:39:58.709Z,100497.84
2022-12-03T09:45:01.740Z,100500.66
2022-12-03T09:50:04.791Z,100503.59
2022-12-03T09:55:13.810Z,100503.31
2022-12-03T10:00:18.700Z,100495.53
2022-12-03T10:05:21.885Z,100494.53
2022-12-03T10:10:25.151Z,100489.59
2022-12-03T10:15:27.442Z,100487.72
2022-12-03T10:20:29.132Z,100483.19
2022-12-03T10:25:30.890Z,100474.88
2022-12-03T10:30:32.966Z,100469.69
2022-12-03T10:35:41.180Z,100474.22
2022-12-03T10:40:42.944Z,100464.44
2022-12-03T10:45:46.466Z,100460.88
2022-12-03T10:51:09.720Z,100466.09
2022-12-03T10:56:17.389Z,100458.22
2022-12-03T11:01:24.895Z,100461.03
2022-12-03T11:06:26.673Z,100456.69
2022-12-03T11:11:46.975Z,100459.22
2022-12-03T11:16:51.460Z,100451.75
2022-12-03T11:22:05.470Z,100451.16
2022-12-03T11:27:16.941Z,100452.03
2022-12-03T11:32:38.897Z,100435.53
2022-12-03T11:37:40.588Z,100432.94
2022-12-03T11:42:42.984Z,100424.50
2022-12-03T11:47:47.859Z,100426.50
2022-12-03T11:52:58.631Z,100427.44
2022-12-03T11:58:03.808Z,100418.63
2022-12-03T12:03:05.602Z,100423.03
2022-12-03T12:08:19.563Z,100417.94
2022-12-03T12:13:30.344Z,100417.16
2022-12-03T12:18:55.542Z,100411.03
2022-12-03T12:24:18.009Z,100406.00
2022-12-03T12:29:19.733Z,100402.44
2022-12-03T12:34:21.382Z,100383.56
2022-12-03T12:39:23.126Z,100378.22
2022-12-03T12:44:26.419Z,100379.38
2022-12-03T12:49:29.686Z,100381.72
2022-12-03T12:54:31.418Z,100367.28
2022-12-03T12:59:33.099Z,100356.88
2022-12-03T13:04:39.991Z,100356.75
2022-12-03T13:09:41.689Z,100361.19
2022-12-03T13:14:43.357Z,100353.19
2022-12-03T13:20:00.561Z,100351.47
2022-12-03T13:25:58.236Z,100355.88
2022-12-03T13:30:55.958Z,100343.66
2022-12-03T13:35:57.818Z,100344.50
2022-12-03T13:41:02.764Z,100350.56
2022-12-03T13:46:04.564Z,100355.66
2022-12-03T13:51:25.938Z,100347.84
2022-12-03T13:56:30.606Z,100342.91
2022-12-03T14:01:32.765Z,100349.81
2022-12-03T14:06:35.012Z,100349.78
2022-12-03T14:11:55.763Z,100341.13
2022-12-03T14:17:00.076Z,100336.00
2022-12-03T14:22:02.664Z,100341.13
2022-12-03T14:27:04.455Z,100337.78
2022-12-03T14:32:06.335Z,100338.59
2022-12-03T14:37:08.416Z,100340.25
2022-12-03T14:42:16.901Z,100334.97
2022-12-03T14:47:22.470Z,100338.50
2022-12-03T14:52:24.118Z,100339.34
2022-12-03T14:57:25.981Z,100337.66
2022-12-03T15:02:28.934Z,100341.28
2022-12-03T15:07:32.043Z,100338.75
2022-12-03T15:12:35.725Z,100340.59
2022-12-03T15:17:37.413Z,100347.59
2022-12-03T15:22:39.280Z,100345.66
2022-12-03T15:27:41.580Z,100343.13
2022-12-03T15:32:43.175Z,100349.47
2022-12-03T15:37:45.274Z,100348.81
2022-12-03T15:42:47.270Z,100343.50
2022-12-03T15:47:49.007Z,100337.41
2022-12-03T15:52:50.745Z,100343.72
2022-12-03T15:57:52.409Z,100326.38
2022-12-03T16:02:54.136Z,100332.41
2022-12-03T16:07:55.880Z,100342.63
2022-12-03T16:12:57.525Z,100339.94
2022-12-03T16:17:59.285Z,100337.34
2022-12-03T16:23:00.973Z,100330.50
2022-12-03T16:28:02.682Z,100336.22
2022-12-03T16:33:04.463Z,100332.63
2022-12-03T16:38:06.193Z,100330.94
2022-12-03T16:43:09.691Z,100338.75
2022-12-03T16:48:11.290Z,100326.72
2022-12-03T16:53:13.435Z,100326.63
2022-12-03T16:58:15.341Z,100322.63
2022-12-03T17:03:20.129Z,100321.97
2022-12-03T17:08:22.006Z,100321.91
2022-12-03T17:13:23.827Z,100322.78
2022-12-03T17:18:25.832Z,100327.03
2022-12-03T17:23:27.627Z,100319.88
2022-12-03T17:28:29.519Z,100303.50
2022-12-03T17:33:31.222Z,100306.09
2022-12-03T17:38:38.852Z,100308.72
2022-12-03T17:43:41.050Z,100306.19
2022-12-03T17:48:42.741Z,100300.75
2022-12-03T17:53:44.620Z,100291.38
2022-12-03T17:58:47.462Z,100294.88
2022-12-03T18:03:49.235Z,100284.50
2022-12-03T18:08:50.966Z,100290.59
2022-12-03T18:13:52.690Z,100287.91
2022-12-03T18:18:57.089Z,100288.03
2022-12-03T18:24:02.283Z,100287.97
2022-12-03T18:29:04.013Z,100289.59
2022-12-03T18:34:05.724Z,100291.38
2022-12-03T18:39:13.492Z,100288.00
2022-12-03T18:44:15.147Z,100291.75
2022-12-03T18:49:17.045Z,100288.84
2022-12-03T18:54:18.726Z,100281.25
2022-12-03T18:59:20.394Z,100281.47
2022-12-03T19:04:22.525Z,100285.72
2022-12-03T19:09:24.392Z,100287.38
2022-12-03T19:14:26.166Z,100282.25
2022-12-03T19:19:28.437Z,100285.88
2022-12-03T19:24:30.626Z,100286.53
2022-12-03T19:29:32.413Z,100288.16
2022-12-03T19:34:34.287Z,100287.34
2022-12-03T19:39:36.174Z,100290.03
2022-12-03T19:44:37.943Z,100281.25
2022-12-03T19:49:39.615Z,100285.84
2022-12-03T19:54:41.248Z,100296.97
2022-12-03T19:59:43.256Z,100289.25
2022-12-03T20:04:44.939Z,100289.09
2022-12-03T20:09:50.304Z,100285.66
2022-12-03T20:14:52.029Z,100286.59
2022-12-03T20:19:55.926Z,100292.59
2022-12-03T20:24:57.792Z,100284.97
2022-12-03T20:29:59.455Z,100278.97
2022-12-03T20:35:03.500Z,100282.50
2022-12-03T20:40:06.095Z,100276.56
2022-12-03T20:45:08.461Z,100273.16
2022-12-03T20:50:10.297Z,100266.91
2022-12-03T20:55:12.099Z,100269.63
2022-12-03T21:00:14.543Z,100262.81
2022-12-03T21:05:16.960Z,100259.25
2022-12-03T21:10:44.501Z,100270.56
2022-12-03T21:15:46.655Z,100267.78
2022-12-03T21:20:48.505Z,100264.25
2022-12-03T21:25:50.409Z,100263.53
2022-12-03T21:30:52.392Z,100258.25
2022-12-03T21:35:55.571Z,100259.22
2022-12-03T21:40:58.308Z,100252.28
2022-12-03T21:46:04.219Z,100260.75
2022-12-03T21:51:25.804Z,100260.19
2022-12-03T21:56:30.381Z,100259.19
2022-12-03T22:01:32.205Z,100254.81
2022-12-03T22:06:34.048Z,100262.78
2022-12-03T22:11:35.792Z,100258.38
2022-12-03T22:16:37.548Z,100249.75
2022-12-03T22:21:39.616Z,100256.63
2022-12-03T22:26:41.228Z,100253.16
2022-12-03T22:31:42.913Z,100252.28
2022-12-03T22:36:44.548Z,100254.91
2022-12-03T22:41:46.225Z,100260.16
2022-12-03T22:46:48.003Z,100250.53
2022-12-03T22:51:49.776Z,100243.56
2022-12-03T22:56:51.521Z,100235.81
2022-12-03T23:01:53.243Z,100235.06
2022-12-03T23:06:54.887Z,100225.50
2022-12-03T23:11:56.507Z,100219.56
2022-12-03T23:16:58.147Z,100217.72
2022-12-03T23:21:59.765Z,100212.50
2022-12-03T23:27:01.395Z,100203.00
2022-12-03T23:32:03.136Z,100196.00
2022-12-03T23:37:04.842Z,100195.25
2022-12-03T23:42:06.440Z,100184.72
2022-12-03T23:47:08.107Z,100194.34
2022-12-03T23:52:09.833Z,100197.75
2022-12-03T23:57:12.654Z,100197.84
